createdAt,value
2022-11-01T00:00:14.874Z,100167.09
2022-11-01T00:01:16.360Z,100164.81
2022-11-01T00:02:18.027Z,100168.97
2022-11-01T00:03:19.550Z,100178.03
2022-11-01T00:04:21.469Z,100166.16
2022-11-01T00:05:23.029Z,100163.59
2022-11-01T00:06:24.597Z,100164.13
2022-11-01T00:07:26.184Z,100162.75
2022-11-01T00:08:27.608Z,100160.78
2022-11-01T00:09:29.185Z,100157.66
2022-11-01T00:10:30.671Z,100156.56
2022-11-01T00:11:32.235Z,100165.00
2022-11-01T00:12:33.751Z,100167.25
2022-11-01T00:13:35.216Z,100164.66
2022-11-01T00:14:36.705Z,100175.91
2022-11-01T00:15:38.217Z,100171.38
2022-11-01T00:16:39.738Z,100178.66
2022-11-01T00:17:41.254Z,100163.22
2022-11-01T00:18:42.789Z,100168.56
2022-11-01T00:19:44.227Z,100176.53
2022-11-01T00:20:46.920Z,100175.91
2022-11-01T00:21:48.430Z,100161.56
2022-11-01T00:22:49.970Z,100169.16
2022-11-01T00:23:51.480Z,100178.50
2022-11-01T00:24:54.908Z,100164.06
2022-11-01T00:26:00.172Z,100170.13
2022-11-01T00:27:02.083Z,100170.88
2022-11-01T00:28:03.970Z,100156.81
2022-11-01T00:29:05.688Z,100155.34
2022-11-01T00:30:07.262Z,100162.03
2022-11-01T00:31:11.862Z,100159.47
2022-11-01T00:32:14.325Z,100155.72
2022-11-01T00:33:15.780Z,100145.81
2022-11-01T00:34:17.353Z,100141.53
2022-11-01T00:35:18.772Z,100150.81
2022-11-01T00:36:20.253Z,100143.19
2022-11-01T00:37:21.761Z,100143.75
2022-11-01T00:38:23.212Z,100134.66
2022-11-01T00:39:28.946Z,100139.16
2022-11-01T00:40:33.195Z,100136.97
2022-11-01T00:41:34.926Z,100139.16
2022-11-01T00:42:36.434Z,100138.53
2022-11-01T00:43:37.917Z,100140.19
2022-11-01T00:44:39.397Z,100147.50
2022-11-01T00:45:42.923Z,100148.31
2022-11-01T00:46:44.396Z,100149.16
2022-11-01T00:47:46.571Z,100146.88
2022-11-01T00:48:48.133Z,100141.22
2022-11-01T00:49:49.585Z,100135.31
2022-11-01T00:50:51.081Z,100136.97
2022-11-01T00:51:52.605Z,100128.22
2022-11-01T00:52:54.028Z,100127.69
2022-11-01T00:53:55.482Z,100132.19
2022-11-01T00:54:56.974Z,100131.03
2022-11-01T00:56:02.071Z,100136.66
2022-11-01T00:57:03.596Z,100139.47
2022-11-01T00:58:05.287Z,100117.66
2022-11-01T00:59:06.835Z,100135.59
2022-11-01T01:00:08.669Z,100137.38
2022-11-01T01:01:10.322Z,100131.22
2022-11-01T01:02:12.013Z,100131.22
2022-11-01T01:03:13.556Z,100134.56
2022-11-01T01:04:15.220Z,100136.53
2022-11-01T01:05:16.733Z,100127.69
2022-11-01T01:06:18.235Z,100133.06
2022-11-01T01:07:19.705Z,100126.41
2022-11-01T01:08:21.302Z,100124.53
2022-11-01T01:09:22.843Z,100124.75
2022-11-01T01:10:24.469Z,100116.38
2022-11-01T01:11:26.203Z,100123.91
2022-11-01T01:12:27.810Z,100117.34
2022-11-01T01:13:29.279Z,100116.69
2022-11-01T01:14:32.445Z,100105.69
2022-11-01T01:15:34.242Z,100108.69
2022-11-01T01:16:35.726Z,100112.03
2022-11-01T01:17:37.275Z,100118.50
2022-11-01T01:18:38.786Z,100117.03
2022-11-01T01:19:40.333Z,100115.88
2022-11-01T01:20:41.853Z,100117.59
2022-11-01T01:21:43.374Z,100108.91
2022-11-01T01:22:44.849Z,100110.88
2022-11-01T01:23:48.677Z,100119.84
2022-11-01T01:24:50.171Z,100126.03
2022-11-01T01:25:51.625Z,100117.59
2022-11-01T01:26:53.219Z,100127.38
2022-11-01T01:27:55.109Z,100124.56
2022-11-01T01:28:56.600Z,100128.75
2022-11-01T01:29:58.070Z,100123.94
2022-11-01T01:30:59.599Z,100134.88
2022-11-01T01:32:01.066Z,100123.63
2022-11-01T01:33:02.691Z,100120.81
2022-11-01T01:34:04.221Z,100129.78
2022-11-01T01:35:05.945Z,100119.34
2022-11-01T01:36:07.731Z,100119.34
2022-11-01T01:37:09.337Z,100122.47
2022-11-01T01:38:10.822Z,100124.78
2022-11-01T01:39:12.348Z,100128.09
2022-11-01T01:40:13.812Z,100130.09
2022-11-01T01:41:34.006Z,100121.31
2022-11-01T01:42:36.623Z,100124.97
2022-11-01T01:43:41.790Z,100125.81
2022-11-01T01:45:01.165Z,100120.19
2022-11-01T01:46:02.619Z,100126.63
2022-11-01T01:47:04.046Z,100121.00
2022-11-01T01:48:12.900Z,100125.22
2022-11-01T01:49:14.375Z,100124.97
2022-11-01T01:50:27.808Z,100112.56
2022-11-01T01:51:29.342Z,100119.66
2022-11-01T01:52:31.675Z,100121.97
2022-11-01T01:53:34.401Z,100119.13
2022-11-01T01:54:35.937Z,100116.13
2022-11-01T01:55:40.119Z,100119.56
2022-11-01T01:56:41.550Z,100117.66
2022-11-01T01:57:43.114Z,100120.16
2022-11-01T01:58:44.530Z,100120.47
2022-11-01T01:59:45.992Z,100122.16
2022-11-01T02:00:47.674Z,100124.25
2022-11-01T02:01:49.262Z,100124.56
2022-11-01T02:02:51.079Z,100110.47
2022-11-01T02:03:52.545Z,100115.47
2022-11-01T02:04:58.290Z,100119.34
2022-11-01T02:06:00.977Z,100111.41
2022-11-01T02:07:02.505Z,100121.22
2022-11-01T02:08:04.950Z,100125.41
2022-11-01T02:09:06.503Z,100120.59
2022-11-01T02:10:08.392Z,100114.97
2022-11-01T02:11:09.921Z,100125.19
2022-11-01T02:12:11.934Z,100125.19
2022-11-01T02:13:13.813Z,100118.09
2022-11-01T02:14:16.021Z,100115.28
2022-11-01T02:15:17.706Z,100121.53
2022-11-01T02:16:19.150Z,100117.59
2022-11-01T02:17:35.610Z,100109.97
2022-11-01T02:18:47.004Z,100098.97
2022-11-01T02:19:48.485Z,100101.53
2022-11-01T02:20:57.245Z,100107.66
2022-11-01T02:22:03.660Z,100098.91
2022-11-01T02:23:23.803Z,100106.22
2022-11-01T02:24:44.897Z,100109.53
2022-11-01T02:26:02.000Z,100101.09
2022-11-01T02:27:22.066Z,100110.88
2022-11-01T02:28:26.707Z,100106.09
2022-11-01T02:29:46.576Z,100103.81
2022-11-01T02:31:00.649Z,100107.75
2022-11-01T02:32:08.480Z,100101.00
2022-11-01T02:33:17.551Z,100094.50
2022-11-01T02:34:19.375Z,100103.50
2022-11-01T02:35:24.228Z,100105.78
2022-11-01T02:36:29.589Z,100094.50
2022-11-01T02:37:42.783Z,100106.63
2022-11-01T02:38:47.545Z,100105.78
2022-11-01T02:39:50.197Z,100111.13
2022-11-01T02:41:00.990Z,100108.31
2022-11-01T02:42:07.311Z,100112.56
2022-11-01T02:43:10.544Z,100120.50
2022-11-01T02:44:31.905Z,100123.72
2022-11-01T02:45:40.203Z,100131.34
2022-11-01T02:47:00.320Z,100135.53
2022-11-01T02:48:01.930Z,100151.28
2022-11-01T02:49:04.114Z,100155.25
2022-11-01T02:50:06.415Z,100160.66
2022-11-01T02:51:07.909Z,100173.34
2022-11-01T02:52:10.241Z,100180.25
2022-11-01T02:53:11.822Z,100183.44
2022-11-01T02:54:18.050Z,100183.75
2022-11-01T02:55:29.893Z,100172.59
2022-11-01T02:56:31.974Z,100172.66
2022-11-01T02:57:39.598Z,100167.44
2022-11-01T02:58:41.040Z,100174.00
2022-11-01T02:59:43.702Z,100157.19
2022-11-01T03:00:46.008Z,100154.69
2022-11-01T03:01:49.605Z,100174.50
2022-11-01T03:02:56.042Z,100165.44
2022-11-01T03:03:57.651Z,100168.81
2022-11-01T03:04:59.143Z,100167.13
2022-11-01T03:06:00.651Z,100153.97
2022-11-01T03:07:03.644Z,100153.66
2022-11-01T03:08:06.094Z,100163.75
2022-11-01T03:09:08.387Z,100154.28
2022-11-01T03:10:09.882Z,100171.78
2022-11-01T03:11:21.100Z,100155.94
2022-11-01T03:12:25.640Z,100158.44
2022-11-01T03:13:32.510Z,100153.53
2022-11-01T03:14:36.691Z,100154.38
2022-11-01T03:15:39.918Z,100155.41
2022-11-01T03:16:53.445Z,100150.63
2022-11-01T03:17:59.662Z,100160.97
2022-11-01T03:19:19.488Z,100160.91
2022-11-01T03:20:21.001Z,100160.22
2022-11-01T03:21:23.171Z,100150.63
2022-11-01T03:22:50.955Z,100150.31
2022-11-01T03:23:55.789Z,100148.56
2022-11-01T03:25:34.090Z,100140.88
2022-11-01T03:26:35.625Z,100155.69
2022-11-01T03:27:41.319Z,100153.72
2022-11-01T03:28:43.142Z,100150.59
2022-11-01T03:29:45.899Z,100153.97
2022-11-01T03:30:51.978Z,100161.78
2022-11-01T03:31:53.441Z,100164.50
2022-11-01T03:32:55.294Z,100157.81
2022-11-01T03:33:58.064Z,100166.16
2022-11-01T03:35:00.071Z,100162.63
2022-11-01T03:36:03.135Z,100170.75
2022-11-01T03:37:05.884Z,100173.25
2022-11-01T03:38:08.377Z,100170.97
2022-11-01T03:39:15.384Z,100176.38
2022-11-01T03:40:16.964Z,100170.75
2022-11-01T03:41:18.450Z,100185.34
2022-11-01T03:42:20.266Z,100181.38
2022-11-01T03:43:22.029Z,100185.03
2022-11-01T03:44:23.538Z,100178.25
2022-11-01T03:45:25.316Z,100183.88
2022-11-01T03:46:26.857Z,100182.53
2022-11-01T03:47:28.981Z,100182.22
2022-11-01T03:48:30.430Z,100178.81
2022-11-01T03:49:31.891Z,100184.13
2022-11-01T03:50:33.953Z,100178.50
2022-11-01T03:51:35.462Z,100184.72
2022-11-01T03:52:36.900Z,100186.69
2022-11-01T03:53:38.379Z,100179.94
2022-11-01T03:54:39.898Z,100183.28
2022-11-01T03:55:41.431Z,100190.91
2022-11-01T03:56:43.058Z,100185.81
2022-11-01T03:57:44.554Z,100187.47
2022-11-01T03:58:46.291Z,100186.41
2022-11-01T03:59:47.731Z,100183.06
2022-11-01T04:00:49.258Z,100189.25
2022-11-01T04:01:50.971Z,100189.81
2022-11-01T04:02:53.100Z,100183.88
2022-11-01T04:03:54.582Z,100193.72
2022-11-01T04:04:56.022Z,100190.34
2022-11-01T04:05:57.472Z,100188.09
2022-11-01T04:06:58.964Z,100186.94
2022-11-01T04:08:00.540Z,100190.91
2022-11-01T04:09:01.982Z,100200.78
2022-11-01T04:10:03.560Z,100198.78
2022-11-01T04:11:05.118Z,100204.72
2022-11-01T04:12:06.594Z,100198.06
2022-11-01T04:13:08.444Z,100206.81
2022-11-01T04:14:48.554Z,100207.34
2022-11-01T04:16:09.419Z,100202.63
2022-11-01T04:17:30.928Z,100215.88
2022-11-01T04:18:51.389Z,100217.91
2022-11-01T04:20:11.134Z,100220.50
2022-11-01T04:21:16.554Z,100222.69
2022-11-01T04:22:20.620Z,100220.44
2022-11-01T04:23:25.092Z,100223.56
2022-11-01T04:24:26.547Z,100221.78
2022-11-01T04:25:28.097Z,100209.19
2022-11-01T04:26:30.537Z,100217.84
2022-11-01T04:27:32.036Z,100228.72
2022-11-01T04:28:33.473Z,100230.63
2022-11-01T04:29:34.939Z,100230.63
2022-11-01T04:30:36.510Z,100230.53
2022-11-01T04:31:38.048Z,100232.44
2022-11-01T04:32:42.596Z,100231.00
2022-11-01T04:33:44.035Z,100221.09
2022-11-01T04:34:45.609Z,100216.81
2022-11-01T04:35:47.271Z,100224.13
2022-11-01T04:36:48.753Z,100224.38
2022-11-01T04:37:55.686Z,100221.25
2022-11-01T04:38:57.320Z,100216.13
2022-11-01T04:39:58.810Z,100217.72
2022-11-01T04:41:00.295Z,100211.50
2022-11-01T04:42:01.842Z,100198.47
2022-11-01T04:43:03.337Z,100198.16
2022-11-01T04:44:05.383Z,100192.72
2022-11-01T04:45:07.620Z,100194.94
2022-11-01T04:46:09.125Z,100180.78
2022-11-01T04:47:10.634Z,100195.38
2022-11-01T04:48:18.395Z,100192.56
2022-11-01T04:49:19.882Z,100204.88
2022-11-01T04:50:21.499Z,100203.13
2022-11-01T04:51:22.931Z,100210.72
2022-11-01T04:52:24.441Z,100208.22
2022-11-01T04:53:25.930Z,100211.13
2022-11-01T04:54:31.515Z,100207.78
2022-11-01T04:55:33.008Z,100203.78
2022-11-01T04:56:34.490Z,100206.06
2022-11-01T04:57:39.832Z,100212.53
2022-11-01T04:58:44.951Z,100208.56
2022-11-01T04:59:48.572Z,100199.19
2022-11-01T05:00:50.091Z,100199.75
2022-11-01T05:01:51.696Z,100201.72
2022-11-01T05:02:53.861Z,100198.81
2022-11-01T05:03:55.761Z,100204.66
2022-11-01T05:04:57.265Z,100210.53
2022-11-01T05:05:58.960Z,100222.00
2022-11-01T05:07:00.573Z,100227.31
2022-11-01T05:09:09.034Z,100226.38
2022-11-01T05:10:10.480Z,100232.84
2022-11-01T05:11:11.971Z,100236.81
2022-11-01T05:12:13.475Z,100228.88
2022-11-01T05:13:14.989Z,100236.22
2022-11-01T05:14:16.463Z,100232.25
2022-11-01T05:15:17.961Z,100228.06
2022-11-01T05:16:20.659Z,100255.38
2022-11-01T05:17:22.956Z,100257.69
2022-11-01T05:18:24.428Z,100254.66
2022-11-01T05:19:25.863Z,100262.78
2022-11-01T05:20:27.556Z,100264.78
2022-11-01T05:21:29.267Z,100249.97
2022-11-01T05:22:30.756Z,100268.53
2022-11-01T05:23:32.210Z,100267.97
2022-11-01T05:24:33.802Z,100274.16
2022-11-01T05:25:38.025Z,100271.88
2022-11-01T05:26:39.893Z,100274.06
2022-11-01T05:27:41.406Z,100261.66
2022-11-01T05:28:42.954Z,100270.63
2022-11-01T05:29:44.433Z,100270.09
2022-11-01T05:30:45.909Z,100266.75
2022-11-01T05:31:47.387Z,100272.91
2022-11-01T05:32:48.917Z,100267.97
2022-11-01T05:33:50.410Z,100271.66
2022-11-01T05:34:51.925Z,100266.22
2022-11-01T05:35:53.391Z,100264.25
2022-11-01T05:36:54.986Z,100267.38
2022-11-01T05:37:56.623Z,100263.59
2022-11-01T05:38:58.189Z,100268.91
2022-11-01T05:39:59.705Z,100275.38
2022-11-01T05:41:01.876Z,100285.13
2022-11-01T05:42:03.420Z,100286.78
2022-11-01T05:43:05.237Z,100283.38
2022-11-01T05:44:07.057Z,100283.09
2022-11-01T05:45:10.058Z,100285.59
2022-11-01T05:46:11.520Z,100287.78
2022-11-01T05:47:17.080Z,100287.88
2022-11-01T05:48:19.164Z,100294.94
2022-11-01T05:49:22.539Z,100299.16
2022-11-01T05:50:24.016Z,100302.69
2022-11-01T05:51:25.467Z,100297.59
2022-11-01T05:52:26.945Z,100301.25
2022-11-01T05:53:28.462Z,100307.19
2022-11-01T05:54:29.961Z,100299.56
2022-11-01T05:55:31.441Z,100303.53
2022-11-01T05:56:33.018Z,100307.59
2022-11-01T05:57:34.612Z,100309.25
2022-11-01T05:58:36.145Z,100317.41
2022-11-01T05:59:37.653Z,100307.28
2022-11-01T06:00:39.112Z,100316.25
2022-11-01T06:01:40.720Z,100313.13
2022-11-01T06:02:42.359Z,100321.88
2022-11-01T06:03:43.946Z,100319.38
2022-11-01T06:04:45.405Z,100319.38
2022-11-01T06:05:46.919Z,100323.34
2022-11-01T06:06:48.349Z,100325.00
2022-11-01T06:07:49.781Z,100312.59
2022-11-01T06:08:51.309Z,100318.97
2022-11-01T06:09:52.752Z,100323.78
2022-11-01T06:10:56.719Z,100313.97
2022-11-01T06:11:58.263Z,100313.13
2022-11-01T06:13:00.078Z,100311.47
2022-11-01T06:14:01.690Z,100312.50
2022-11-01T06:15:03.281Z,100326.00
2022-11-01T06:16:06.269Z,100320.44
2022-11-01T06:17:08.656Z,100320.44
2022-11-01T06:18:10.111Z,100323.25
2022-11-01T06:19:11.739Z,100320.44
2022-11-01T06:20:13.181Z,100329.41
2022-11-01T06:21:14.874Z,100323.25
2022-11-01T06:22:16.338Z,100332.22
2022-11-01T06:23:17.793Z,100338.69
2022-11-01T06:24:19.262Z,100337.53
2022-11-01T06:25:20.756Z,100330.50
2022-11-01T06:26:22.233Z,100328.19
2022-11-01T06:27:23.667Z,100331.84
2022-11-01T06:28:25.138Z,100332.69
2022-11-01T06:29:26.647Z,100336.72
2022-11-01T06:30:28.080Z,100335.28
2022-11-01T06:31:29.568Z,100338.84
2022-11-01T06:32:31.060Z,100335.94
2022-11-01T06:33:32.912Z,100338.16
2022-11-01T06:34:34.389Z,100340.38
2022-11-01T06:35:35.928Z,100340.91
2022-11-01T06:36:37.909Z,100342.38
2022-11-01T06:37:39.389Z,100351.66
2022-11-01T06:38:40.897Z,100348.34
2022-11-01T06:39:42.362Z,100354.38
2022-11-01T06:40:43.848Z,100360.31
2022-11-01T06:41:45.361Z,100355.75
2022-11-01T06:42:47.149Z,100357.72
2022-11-01T06:43:49.385Z,100361.59
2022-11-01T06:44:50.874Z,100350.84
2022-11-01T06:45:52.467Z,100354.91
2022-11-01T06:46:54.854Z,100361.28
2022-11-01T06:47:56.341Z,100357.88
2022-11-01T06:48:57.943Z,100349.16
2022-11-01T06:49:59.394Z,100357.28
2022-11-01T06:51:03.854Z,100364.06
2022-11-01T06:52:05.521Z,100363.44
2022-11-01T06:53:06.974Z,100359.78
2022-11-01T06:54:08.465Z,100360.63
2022-11-01T06:55:09.947Z,100361.78
2022-11-01T06:56:11.373Z,100361.25
2022-11-01T06:57:12.855Z,100366.38
2022-11-01T06:58:14.333Z,100363.19
2022-11-01T06:59:16.861Z,100367.41
2022-11-01T07:00:18.362Z,100365.97
2022-11-01T07:01:22.063Z,100368.78
2022-11-01T07:02:29.611Z,100373.41
2022-11-01T07:03:31.624Z,100373.72
2022-11-01T07:04:33.298Z,100372.78
2022-11-01T07:05:37.168Z,100372.19
2022-11-01T07:06:39.186Z,100379.50
2022-11-01T07:07:42.055Z,100372.66
2022-11-01T07:08:43.564Z,100383.91
2022-11-01T07:09:45.015Z,100375.16
2022-11-01T07:10:50.396Z,100384.38
2022-11-01T07:11:51.898Z,100378.75
2022-11-01T07:13:00.040Z,100380.41
2022-11-01T07:14:01.549Z,100384.38
2022-11-01T07:15:03.431Z,100387.13
2022-11-01T07:16:05.293Z,100392.47
2022-11-01T07:17:06.870Z,100393.81
2022-11-01T07:18:08.526Z,100392.69
2022-11-01T07:19:10.050Z,100393.81
2022-11-01T07:20:11.750Z,100394.06
2022-11-01T07:21:13.204Z,100395.50
2022-11-01T07:22:14.825Z,100401.69
2022-11-01T07:23:16.474Z,100388.72
2022-11-01T07:24:17.960Z,100405.63
2022-11-01T07:25:19.445Z,100407.84
2022-11-01T07:26:21.147Z,100405.56
2022-11-01T07:27:22.585Z,100400.97
2022-11-01T07:28:24.128Z,100402.63
2022-11-01T07:29:25.663Z,100411.63
2022-11-01T07:30:27.546Z,100414.16
2022-11-01T07:31:30.246Z,100419.19
2022-11-01T07:32:33.348Z,100417.50
2022-11-01T07:33:36.915Z,100423.34
2022-11-01T07:34:38.636Z,100427.84
2022-11-01T07:35:40.096Z,100422.75
2022-11-01T07:36:41.597Z,100415.66
2022-11-01T07:37:43.100Z,100424.09
2022-11-01T07:38:44.541Z,100420.44
2022-11-01T07:39:46.070Z,100420.44
2022-11-01T07:40:49.764Z,100419.59
2022-11-01T07:41:52.418Z,100424.41
2022-11-01T07:42:58.224Z,100423.34
2022-11-01T07:43:59.749Z,100423.97
2022-11-01T07:45:01.251Z,100424.59
2022-11-01T07:46:05.680Z,100431.91
2022-11-01T07:47:07.152Z,100423.44
2022-11-01T07:48:12.545Z,100427.63
2022-11-01T07:49:13.994Z,100426.50
2022-11-01T07:50:15.561Z,100435.16
2022-11-01T07:51:17.469Z,100430.44
2022-11-01T07:52:18.923Z,100440.59
2022-11-01T07:53:20.453Z,100434.72
2022-11-01T07:54:21.909Z,100437.53
2022-11-01T07:55:23.422Z,100429.63
2022-11-01T07:56:24.886Z,100430.66
2022-11-01T07:57:26.329Z,100431.72
2022-11-01T07:58:27.830Z,100425.88
2022-11-01T07:59:29.478Z,100427.31
2022-11-01T08:00:31.807Z,100439.44
2022-11-01T08:01:33.510Z,100447.97
2022-11-01T08:02:35.215Z,100442.41
2022-11-01T08:03:36.764Z,100451.47
2022-11-01T08:04:38.366Z,100447.50
2022-11-01T08:05:39.871Z,100443.69
2022-11-01T08:06:41.374Z,100456.34
2022-11-01T08:07:42.914Z,100447.03
2022-11-01T08:08:46.135Z,100443.66
2022-11-01T08:09:47.612Z,100451.69
2022-11-01T08:10:49.193Z,100443.25
2022-11-01T08:11:50.681Z,100441.03
2022-11-01T08:12:52.238Z,100454.13
2022-11-01T08:13:53.676Z,100450.16
2022-11-01T08:14:55.125Z,100442.25
2022-11-01T08:15:56.658Z,100440.22
2022-11-01T08:17:01.571Z,100456.72
2022-11-01T08:18:03.525Z,100454.16
2022-11-01T08:19:05.222Z,100457.41
2022-11-01T08:20:07.134Z,100457.72
2022-11-01T08:21:08.633Z,100458.03
2022-11-01T08:22:10.167Z,100466.16
2022-11-01T08:23:11.661Z,100461.06
2022-11-01T08:24:13.315Z,100459.91
2022-11-01T08:25:14.870Z,100466.38
2022-11-01T08:26:16.503Z,100465.53
2022-11-01T08:27:17.964Z,100469.81
2022-11-01T08:28:19.802Z,100468.47
2022-11-01T08:29:21.385Z,100470.34
2022-11-01T08:30:22.864Z,100468.09
2022-11-01T08:31:24.340Z,100471.19
2022-11-01T08:32:25.914Z,100472.56
2022-11-01T08:33:27.362Z,100483.91
2022-11-01T08:34:30.802Z,100472.94
2022-11-01T08:35:32.634Z,100479.94
2022-11-01T08:36:34.250Z,100477.13
2022-11-01T08:37:35.714Z,100485.28
2022-11-01T08:38:37.330Z,100489.50
2022-11-01T08:39:38.836Z,100483.91
2022-11-01T08:40:40.431Z,100486.94
2022-11-01T08:41:41.889Z,100490.31
2022-11-01T08:42:43.386Z,100483.00
2022-11-01T08:43:45.188Z,100481.31
2022-11-01T08:44:46.613Z,100495.34
2022-11-01T08:45:48.095Z,100488.56
2022-11-01T08:46:49.919Z,100493.06
2022-11-01T08:47:56.345Z,100495.78
2022-11-01T08:49:00.379Z,100501.97
2022-11-01T08:50:02.602Z,100497.38
2022-11-01T08:51:05.250Z,100504.69
2022-11-01T08:52:06.748Z,100507.44
2022-11-01T08:53:09.149Z,100502.88
2022-11-01T08:54:12.119Z,100511.03
2022-11-01T08:55:13.698Z,100495.56
2022-11-01T08:56:15.120Z,100514.00
2022-11-01T08:57:16.635Z,100529.44
2022-11-01T08:58:18.181Z,100535.09
2022-11-01T08:59:19.689Z,100524.66
2022-11-01T09:00:21.430Z,100528.63
2022-11-01T09:01:28.758Z,100534.84
2022-11-01T09:02:30.358Z,100537.97
2022-11-01T09:03:31.854Z,100533.50
2022-11-01T09:04:33.313Z,100534.31
2022-11-01T09:05:35.172Z,100533.78
2022-11-01T09:06:36.716Z,100526.47
2022-11-01T09:07:38.217Z,100534.41
2022-11-01T09:08:39.696Z,100530.75
2022-11-01T09:09:41.179Z,100539.22
2022-11-01T09:10:42.746Z,100535.56
2022-11-01T09:11:44.248Z,100537.56
2022-11-01T09:12:45.800Z,100510.56
2022-11-01T09:13:47.278Z,100532.44
2022-11-01T09:14:49.087Z,100536.72
2022-11-01T09:15:50.626Z,100523.75
2022-11-01T09:16:52.498Z,100541.88
2022-11-01T09:17:54.219Z,100535.41
2022-11-01T09:18:57.727Z,100547.09
2022-11-01T09:19:59.169Z,100533.28
2022-11-01T09:21:00.799Z,100531.59
2022-11-01T09:22:02.274Z,100538.06
2022-11-01T09:23:04.269Z,100533.28
2022-11-01T09:24:06.089Z,100536.41
2022-11-01T09:25:07.861Z,100545.16
2022-11-01T09:26:10.162Z,100536.72
2022-11-01T09:27:11.653Z,100539.00
2022-11-01T09:28:14.015Z,100546.63
2022-11-01T09:29:17.241Z,100543.81
2022-11-01T09:30:18.786Z,100546.31
2022-11-01T09:31:21.550Z,100549.44
2022-11-01T09:32:23.425Z,100539.09
2022-11-01T09:33:24.889Z,100540.50
2022-11-01T09:34:26.363Z,100552.41
2022-11-01T09:35:27.825Z,100549.88
2022-11-01T09:36:29.317Z,100539.00
2022-11-01T09:37:30.895Z,100550.28
2022-11-01T09:38:32.351Z,100545.47
2022-11-01T09:39:33.822Z,100550.28
2022-11-01T09:40:37.534Z,100555.09
2022-11-01T09:41:43.036Z,100555.91
2022-11-01T09:42:44.578Z,100555.09
2022-11-01T09:43:46.031Z,100550.81
2022-11-01T09:44:47.960Z,100554.16
2022-11-01T09:45:49.845Z,100552.78
2022-11-01T09:46:53.533Z,100554.25
2022-11-01T09:47:57.268Z,100559.88
2022-11-01T09:48:59.179Z,100568.88
2022-11-01T09:50:12.054Z,100563.81
2022-11-01T09:51:17.813Z,100564.66
2022-11-01T09:52:19.923Z,100551.94
2022-11-01T09:53:22.141Z,100574.56
2022-11-01T09:54:23.937Z,100570.66
2022-11-01T09:55:37.561Z,100576.84
2022-11-01T09:56:44.241Z,100573.41
2022-11-01T09:57:46.302Z,100579.59
2022-11-01T09:58:50.722Z,100588.28
2022-11-01T09:59:56.661Z,100580.28
2022-11-01T10:01:12.914Z,100584.88
2022-11-01T10:02:15.378Z,100582.69
2022-11-01T10:03:43.913Z,100591.19
2022-11-01T10:04:48.487Z,100588.06
2022-11-01T10:05:58.841Z,100586.84
2022-11-01T10:07:05.968Z,100585.59
2022-11-01T10:08:07.480Z,100587.09
2022-11-01T10:09:27.607Z,100591.28
2022-11-01T10:10:39.386Z,100598.44
2022-11-01T10:11:58.621Z,100589.06
2022-11-01T10:13:18.844Z,100597.22
2022-11-01T10:14:27.105Z,100591.59
2022-11-01T10:15:34.525Z,100585.97
2022-11-01T10:16:37.083Z,100599.16
2022-11-01T10:17:52.400Z,100604.94
2022-11-01T10:19:14.821Z,100604.94
2022-11-01T10:20:16.423Z,100591.84
2022-11-01T10:21:18.175Z,100592.69
2022-11-01T10:22:24.029Z,100583.91
2022-11-01T10:23:45.742Z,100592.38
2022-11-01T10:24:51.574Z,100577.84
2022-11-01T10:25:54.839Z,100574.56
2022-11-01T10:26:58.865Z,100577.19
2022-11-01T10:28:06.314Z,100563.69
2022-11-01T10:29:24.660Z,100567.84
2022-11-01T10:30:26.157Z,100560.47
2022-11-01T10:31:27.680Z,100560.06
2022-11-01T10:32:40.464Z,100558.13
2022-11-01T10:33:50.748Z,100553.81
2022-11-01T10:34:52.195Z,100555.06
2022-11-01T10:35:55.476Z,100556.59
2022-11-01T10:36:58.786Z,100560.78
2022-11-01T10:38:49.587Z,100555.44
2022-11-01T10:40:15.083Z,100561.09
2022-11-01T10:41:36.787Z,100565.13
2022-11-01T10:42:38.360Z,100556.75
2022-11-01T10:43:46.882Z,100558.56
2022-11-01T10:44:55.282Z,100561.38
2022-11-01T10:45:56.938Z,100569.00
2022-11-01T10:46:58.785Z,100559.63
2022-11-01T10:48:00.786Z,100570.13
2022-11-01T10:49:06.606Z,100563.75
2022-11-01T10:50:15.600Z,100561.22
2022-11-01T10:51:17.357Z,100560.75
2022-11-01T10:52:20.468Z,100549.19
2022-11-01T10:53:22.452Z,100551.56
2022-11-01T10:54:25.661Z,100558.69
2022-11-01T10:55:33.133Z,100565.00
2022-11-01T10:56:36.114Z,100550.47
2022-11-01T10:58:04.324Z,100562.69
2022-11-01T10:59:08.304Z,100555.16
2022-11-01T11:00:14.263Z,100564.38
2022-11-01T11:01:16.987Z,100557.53
2022-11-01T11:02:18.656Z,100558.56
2022-11-01T11:03:24.478Z,100563.25
2022-11-01T11:04:26.239Z,100573.66
2022-11-01T11:05:29.131Z,100571.28
2022-11-01T11:06:30.737Z,100561.91
2022-11-01T11:07:32.318Z,100568.28
2022-11-01T11:08:33.855Z,100569.19
2022-11-01T11:09:35.471Z,100570.03
2022-11-01T11:10:36.965Z,100575.94
2022-11-01T11:11:41.560Z,100567.28
2022-11-01T11:12:43.243Z,100565.28
2022-11-01T11:13:48.583Z,100563.31
2022-11-01T11:14:50.569Z,100561.94
2022-11-01T11:15:56.137Z,100565.66
2022-11-01T11:16:57.661Z,100561.63
2022-11-01T11:17:59.449Z,100564.97
2022-11-01T11:19:16.143Z,100556.94
2022-11-01T11:20:20.466Z,100563.78
2022-11-01T11:21:27.053Z,100559.97
2022-11-01T11:22:29.557Z,100571.16
2022-11-01T11:23:33.081Z,100567.63
2022-11-01T11:24:35.321Z,100566.94
2022-11-01T11:25:37.393Z,100566.94
2022-11-01T11:26:39.245Z,100561.78
2022-11-01T11:27:43.580Z,100572.28
2022-11-01T11:29:02.794Z,100567.28
2022-11-01T11:30:05.396Z,100563.13
2022-11-01T11:31:18.707Z,100572.28
2022-11-01T11:32:20.172Z,100570.63
2022-11-01T11:33:21.881Z,100566.94
2022-11-01T11:34:30.609Z,100570.63
2022-11-01T11:35:37.258Z,100570.63
2022-11-01T11:36:41.952Z,100568.31
2022-11-01T11:37:51.001Z,100572.47
2022-11-01T11:38:52.445Z,100578.50
2022-11-01T11:40:00.666Z,100571.78
2022-11-01T11:41:02.110Z,100580.31
2022-11-01T11:42:24.539Z,100584.31
2022-11-01T11:43:26.013Z,100582.66
2022-11-01T11:44:45.705Z,100582.66
2022-11-01T11:46:05.902Z,100586.00
2022-11-01T11:47:17.890Z,100578.34
2022-11-01T11:48:20.693Z,100583.34
2022-11-01T11:49:28.114Z,100580.84
2022-11-01T11:50:33.464Z,100580.50
2022-11-01T11:51:37.520Z,100585.16
2022-11-01T11:52:39.912Z,100576.00
2022-11-01T11:53:41.397Z,100580.66
2022-11-01T11:54:43.973Z,100584.31
2022-11-01T11:55:46.600Z,100575.81
2022-11-01T11:56:49.801Z,100580.81
2022-11-01T11:57:51.868Z,100579.66
2022-11-01T11:58:53.782Z,100584.34
2022-11-01T11:59:56.200Z,100583.19
2022-11-01T12:00:59.039Z,100579.50
2022-11-01T12:02:04.334Z,100585.34
2022-11-01T12:03:06.802Z,100582.69
2022-11-01T12:04:09.604Z,100583.00
2022-11-01T12:05:22.390Z,100587.50
2022-11-01T12:06:24.920Z,100583.19
2022-11-01T12:07:29.195Z,100583.00